createdAt,value
2023-02-05T00:01:02.154Z,100.00
2023-02-05T00:03:30.067Z,100.00
2023-02-05T00:05:58.002Z,100.00
2023-02-05T00:08:27.589Z,100.00
2023-02-05T00:10:55.615Z,100.00
2023-02-05T00:13:23.792Z,100.00
2023-02-05T00:15:53.145Z,100.00
2023-02-05T00:18:21.314Z,100.00
2023-02-05T00:20:49.222Z,100.00
2023-02-05T00:23:17.158Z,100.00
2023-02-05T00:25:45.065Z,100.00
2023-02-05T00:28:13.344Z,100.00
2023-02-05T00:30:42.665Z,100.00
2023-02-05T00:33:12.176Z,100.00
2023-02-05T00:35:40.155Z,100.00
2023-02-05T00:38:08.116Z,100.00
2023-02-05T00:40:36.313Z,100.00
2023-02-05T00:43:04.229Z,100.00
2023-02-05T00:45:35.433Z,100.00
2023-02-05T00:48:03.813Z,100.00
2023-02-05T00:50:33.814Z,100.00
2023-02-05T00:53:01.815Z,100.00
2023-02-05T00:55:30.087Z,100.00
2023-02-05T00:57:58.302Z,100.00
2023-02-05T01:00:27.009Z,100.00
2023-02-05T01:02:55.143Z,100.00
2023-02-05T01:05:23.242Z,100.00
2023-02-05T01:07:52.580Z,100.00
2023-02-05T01:10:20.926Z,100.00
2023-02-05T01:12:50.250Z,100.00
2023-02-05T01:15:18.677Z,100.00
2023-02-05T01:17:46.633Z,100.00
2023-02-05T01:20:15.813Z,100.00
2023-02-05T01:22:44.387Z,100.00
2023-02-05T01:25:13.726Z,100.00
2023-02-05T01:27:41.781Z,100.00
2023-02-05T01:30:12.603Z,100.00
2023-02-05T01:32:41.751Z,100.00
2023-02-05T01:35:10.552Z,100.00
2023-02-05T01:37:38.526Z,100.00
2023-02-05T01:40:07.370Z,100.00
2023-02-05T01:42:36.647Z,100.00
2023-02-05T01:45:55.149Z,100.00
2023-02-05T01:48:28.483Z,100.00
2023-02-05T01:51:00.438Z,100.00
2023-02-05T01:53:31.087Z,100.00
2023-02-05T01:56:02.668Z,100.00
2023-02-05T01:58:36.039Z,100.00
2023-02-05T02:01:04.145Z,100.00
2023-02-05T02:03:32.843Z,100.00
2023-02-05T02:06:00.844Z,100.00
2023-02-05T02:08:28.902Z,100.00
2023-02-05T02:10:59.411Z,100.00
2023-02-05T02:13:29.261Z,100.00
2023-02-05T02:15:59.481Z,100.00
2023-02-05T02:18:29.149Z,100.00
2023-02-05T02:21:44.403Z,100.00
2023-02-05T02:24:42.705Z,100.00
2023-02-05T02:27:22.417Z,100.00
2023-02-05T02:29:56.532Z,100.00
2023-02-05T02:32:32.845Z,100.00
2023-02-05T02:35:07.285Z,100.00
2023-02-05T02:37:41.116Z,100.00
2023-02-05T02:40:16.758Z,100.00
2023-02-05T02:42:50.366Z,100.00
2023-02-05T02:45:23.789Z,100.00
2023-02-05T02:47:57.965Z,100.00
2023-02-05T02:50:32.848Z,100.00
2023-02-05T02:53:05.690Z,100.00
2023-02-05T02:55:38.844Z,100.00
2023-02-05T02:58:10.411Z,100.00
2023-02-05T03:00:42.985Z,100.00
2023-02-05T03:03:14.550Z,100.00
2023-02-05T03:05:44.609Z,100.00
2023-02-05T03:08:17.715Z,100.00
2023-02-05T03:10:48.990Z,100.00
2023-02-05T03:13:17.148Z,100.00
2023-02-05T03:15:47.912Z,100.00
2023-02-05T03:18:18.515Z,100.00
2023-02-05T03:20:50.806Z,100.00
2023-02-05T03:23:18.938Z,100.00
2023-02-05T03:25:46.918Z,100.00
2023-02-05T03:28:15.453Z,100.00
2023-02-05T03:30:57.967Z,100.00
2023-02-05T03:33:40.613Z,100.00
2023-02-05T03:36:17.612Z,100.00
2023-02-05T03:39:05.791Z,100.00
2023-02-05T03:41:58.386Z,100.00
2023-02-05T03:44:51.115Z,100.00
2023-02-05T03:47:27.667Z,100.00
2023-02-05T03:50:07.951Z,100.00
2023-02-05T03:52:43.205Z,100.00
2023-02-05T03:55:17.094Z,100.00
2023-02-05T03:57:51.809Z,100.00
2023-02-05T04:00:20.214Z,100.00
2023-02-05T04:02:49.625Z,100.00
2023-02-05T04:05:17.852Z,100.00
2023-02-05T04:07:45.732Z,100.00
2023-02-05T04:10:13.630Z,100.00
2023-02-05T04:12:41.796Z,100.00
2023-02-05T04:15:10.922Z,100.00
2023-02-05T04:17:38.918Z,100.00
2023-02-05T04:20:09.709Z,100.00
2023-02-05T04:22:37.777Z,100.00
2023-02-05T04:25:06.177Z,100.00
2023-02-05T04:27:34.896Z,100.00
2023-02-05T04:30:02.826Z,100.00
2023-02-05T04:32:30.702Z,100.00
2023-02-05T04:34:58.598Z,100.00
2023-02-05T04:37:27.895Z,100.00
2023-02-05T04:39:55.797Z,100.00
2023-02-05T04:42:23.721Z,100.00
2023-02-05T04:44:52.908Z,100.00
2023-02-05T04:47:21.074Z,100.00
2023-02-05T04:49:48.968Z,100.00
2023-02-05T04:52:16.852Z,100.00
2023-02-05T04:54:46.166Z,100.00
2023-02-05T04:57:14.061Z,100.00
2023-02-05T04:59:42.207Z,100.00
2023-02-05T05:02:10.136Z,100.00
2023-02-05T05:04:38.469Z,100.00
2023-02-05T05:07:06.398Z,100.00
2023-02-05T05:09:34.331Z,100.00
2023-02-05T05:12:03.628Z,100.00
2023-02-05T05:14:31.617Z,100.00
2023-02-05T05:16:59.529Z,100.00
2023-02-05T05:19:27.540Z,100.00
2023-02-05T05:21:55.460Z,100.00
2023-02-05T05:24:23.366Z,100.00
2023-02-05T05:26:51.320Z,100.00
2023-02-05T05:29:20.664Z,100.00
2023-02-05T05:31:48.752Z,100.00
2023-02-05T05:34:17.088Z,100.00
2023-02-05T05:36:45.422Z,100.00
2023-02-05T05:39:30.534Z,100.00
2023-02-05T05:42:15.985Z,100.00
2023-02-05T05:44:50.158Z,100.00
2023-02-05T05:47:18.404Z,100.00
2023-02-05T05:49:46.412Z,100.00
2023-02-05T05:52:14.625Z,100.00
2023-02-05T05:54:42.628Z,100.00
2023-02-05T05:57:10.777Z,100.00
2023-02-05T05:59:38.742Z,100.00
2023-02-05T06:02:08.725Z,100.00
2023-02-05T06:04:36.738Z,100.00
2023-02-05T06:07:04.711Z,100.00
2023-02-05T06:09:32.666Z,100.00
2023-02-05T06:12:00.810Z,100.00
2023-02-05T06:14:28.812Z,100.00
2023-02-05T06:16:56.721Z,100.00
2023-02-05T06:19:26.242Z,100.00
2023-02-05T06:21:54.106Z,100.00
2023-02-05T06:24:22.100Z,100.00
2023-02-05T06:26:50.048Z,100.00
2023-02-05T06:29:18.050Z,100.00
2023-02-05T06:31:46.266Z,100.00
2023-02-05T06:34:14.260Z,100.00
2023-02-05T06:36:43.660Z,100.00
2023-02-05T06:39:11.528Z,100.00
2023-02-05T06:41:39.866Z,100.00
2023-02-05T06:44:08.034Z,100.00
2023-02-05T06:46:35.993Z,100.00
2023-02-05T06:49:03.978Z,100.00
2023-02-05T06:51:32.176Z,100.00
2023-02-05T06:54:02.515Z,100.00
2023-02-05T06:56:30.826Z,100.00
2023-02-05T06:58:58.747Z,100.00
2023-02-05T07:01:26.753Z,100.00
2023-02-05T07:03:56.292Z,100.00
2023-02-05T07:06:24.948Z,100.00
2023-02-05T07:08:53.388Z,100.00
2023-02-05T07:11:27.748Z,100.00
2023-02-05T07:13:56.800Z,100.00
2023-02-05T07:16:24.727Z,100.00
2023-02-05T07:18:53.742Z,100.00
2023-02-05T07:21:22.306Z,100.00
2023-02-05T07:23:51.005Z,100.00
2023-02-05T07:26:19.867Z,100.00
2023-02-05T07:28:49.304Z,100.00
2023-02-05T07:31:20.001Z,100.00
2023-02-05T07:33:48.904Z,100.00
2023-02-05T07:36:18.839Z,100.00
2023-02-05T07:38:48.460Z,100.00
2023-02-05T07:41:17.556Z,100.00
2023-02-05T07:43:45.954Z,100.00
2023-02-05T07:46:16.320Z,100.00
2023-02-05T07:48:44.442Z,100.00
2023-02-05T07:51:18.319Z,100.00
2023-02-05T07:53:46.774Z,100.00
2023-02-05T07:56:15.557Z,100.00
2023-02-05T07:58:43.991Z,100.00
2023-02-05T08:01:12.043Z,100.00
2023-02-05T08:03:41.509Z,100.00
2023-02-05T08:06:14.026Z,100.00
2023-02-05T08:08:42.008Z,100.00
2023-02-05T08:11:15.303Z,100.00
2023-02-05T08:13:43.586Z,100.00
2023-02-05T08:16:12.532Z,100.00
2023-02-05T08:18:42.126Z,100.00
2023-02-05T08:21:10.095Z,100.00
2023-02-05T08:23:38.058Z,100.00
2023-02-05T08:26:06.175Z,100.00
2023-02-05T08:28:34.110Z,100.00
2023-02-05T08:31:02.029Z,100.00
2023-02-05T08:33:30.150Z,100.00
2023-02-05T08:36:00.461Z,100.00
2023-02-05T08:38:28.547Z,100.00
2023-02-05T08:40:57.925Z,100.00
2023-02-05T08:43:25.904Z,100.00
2023-02-05T08:45:54.304Z,100.00
2023-02-05T08:48:23.110Z,100.00
2023-02-05T08:50:51.116Z,100.00
2023-02-05T08:53:20.429Z,100.00
2023-02-05T08:55:56.125Z,100.00
2023-02-05T08:58:24.126Z,100.00
2023-02-05T09:00:52.556Z,100.00
2023-02-05T09:03:20.555Z,100.00
2023-02-05T09:05:48.479Z,100.00
2023-02-05T09:08:16.688Z,100.00
2023-02-05T09:10:46.452Z,100.00
2023-02-05T09:13:14.398Z,100.00
2023-02-05T09:15:43.738Z,100.00
2023-02-05T09:18:11.647Z,100.00
2023-02-05T09:20:43.176Z,100.00
2023-02-05T09:23:12.005Z,100.00
2023-02-05T09:25:42.463Z,100.00
2023-02-05T09:28:14.260Z,100.00
2023-02-05T09:30:44.320Z,100.00
2023-02-05T09:33:13.235Z,100.00
2023-02-05T09:35:41.454Z,100.00
2023-02-05T09:38:09.801Z,100.00
2023-02-05T09:40:43.530Z,100.00
2023-02-05T09:43:28.753Z,100.00
2023-02-05T09:46:02.750Z,100.00
2023-02-05T09:48:49.846Z,100.00
2023-02-05T09:51:21.083Z,100.00
2023-02-05T09:53:56.226Z,100.00
2023-02-05T09:56:25.679Z,100.00
2023-02-05T09:58:57.944Z,100.00
2023-02-05T10:01:37.207Z,100.00
2023-02-05T10:04:07.976Z,100.00
2023-02-05T10:06:51.142Z,100.00
2023-02-05T10:09:47.134Z,100.00
2023-02-05T10:12:27.158Z,100.00
2023-02-05T10:15:11.380Z,100.00
2023-02-05T10:17:55.862Z,100.00
2023-02-05T10:20:39.472Z,100.00
2023-02-05T10:23:15.830Z,100.00
2023-02-05T10:25:56.396Z,100.00
2023-02-05T10:28:49.832Z,100.00
2023-02-05T10:31:28.866Z,100.00
2023-02-05T10:34:05.533Z,100.00
2023-02-05T10:36:34.525Z,100.00
2023-02-05T10:39:02.904Z,100.00
2023-02-05T10:41:37.192Z,100.00
2023-02-05T10:44:13.210Z,100.00
2023-02-05T10:46:46.137Z,100.00
2023-02-05T10:49:19.831Z,100.00
2023-02-05T10:51:47.793Z,100.00
2023-02-05T10:54:20.778Z,100.00
2023-02-05T10:56:49.309Z,100.00
2023-02-05T10:59:24.290Z,100.00
2023-02-05T11:01:56.957Z,100.00
2023-02-05T11:04:38.823Z,100.00
2023-02-05T11:07:13.498Z,100.00
2023-02-05T11:09:41.599Z,100.00
2023-02-05T11:12:20.952Z,100.00
2023-02-05T11:14:57.960Z,100.00
2023-02-05T11:17:33.854Z,100.00
2023-02-05T11:20:04.575Z,100.00
2023-02-05T11:22:35.182Z,100.00
2023-02-05T11:25:08.874Z,100.00
2023-02-05T11:27:38.525Z,100.00
2023-02-05T11:30:47.962Z,100.00
2023-02-05T11:33:32.780Z,100.00
2023-02-05T11:36:03.515Z,100.00
2023-02-05T11:38:43.309Z,100.00
2023-02-05T11:41:13.975Z,98.00
2023-02-05T11:43:50.424Z,99.79
2023-02-05T11:46:21.857Z,97.36
2023-02-05T11:48:58.662Z,95.01
2023-02-05T11:51:39.482Z,93.37
2023-02-05T11:54:20.463Z,92.83
2023-02-05T11:57:05.163Z,90.20
2023-02-05T11:59:33.792Z,90.33
2023-02-05T12:02:35.110Z,86.50
2023-02-05T12:05:13.462Z,87.30
2023-02-05T12:07:46.226Z,87.31
2023-02-05T12:10:17.763Z,86.02
2023-02-05T12:12:57.878Z,88.38
2023-02-05T12:15:29.460Z,89.48
2023-02-05T12:18:11.465Z,89.55
2023-02-05T12:20:50.692Z,90.92
2023-02-05T12:23:31.101Z,92.45
2023-02-05T12:26:30.993Z,91.10
2023-02-05T12:29:13.151Z,93.67
2023-02-05T12:31:53.002Z,95.45
2023-02-05T12:34:29.504Z,99.88
2023-02-05T12:37:17.578Z,100.00
2023-02-05T12:39:50.040Z,100.00
2023-02-05T12:42:31.143Z,100.00
2023-02-05T12:45:30.665Z,100.00
2023-02-05T12:48:11.164Z,100.00
2023-02-05T12:50:57.537Z,100.00
2023-02-05T12:53:41.506Z,100.00
2023-02-05T12:56:23.995Z,100.00
2023-02-05T12:58:55.820Z,100.00
2023-02-05T13:01:37.991Z,100.00
2023-02-05T13:04:10.985Z,100.00
2023-02-05T13:06:45.115Z,100.00
2023-02-05T13:09:20.431Z,100.00
2023-02-05T13:11:57.302Z,100.00
2023-02-05T13:14:31.305Z,100.00
2023-02-05T13:17:04.194Z,100.00
2023-02-05T13:19:36.334Z,100.00
2023-02-05T13:22:31.296Z,100.00
2023-02-05T13:25:27.362Z,100.00
2023-02-05T13:28:31.411Z,100.00
2023-02-05T13:31:02.084Z,100.00
2023-02-05T13:33:30.308Z,100.00
2023-02-05T13:36:12.122Z,100.00
2023-02-05T13:38:57.439Z,100.00
2023-02-05T13:41:38.460Z,100.00
2023-02-05T13:44:25.226Z,100.00
2023-02-05T13:47:27.209Z,100.00
2023-02-05T13:50:28.486Z,100.00
2023-02-05T13:53:10.048Z,100.00
2023-02-05T13:55:55.457Z,100.00
2023-02-05T13:58:44.377Z,100.00
2023-02-05T14:01:18.905Z,100.00
2023-02-05T14:03:59.114Z,100.00
2023-02-05T14:06:30.997Z,100.00
2023-02-05T14:09:02.951Z,100.00
2023-02-05T14:11:45.151Z,100.00
2023-02-05T14:14:26.798Z,100.00
2023-02-05T14:16:56.158Z,100.00
2023-02-05T14:19:26.897Z,100.00
2023-02-05T14:22:07.282Z,100.00
2023-02-05T14:24:47.585Z,100.00
2023-02-05T14:27:47.685Z,100.00
2023-02-05T14:30:48.971Z,100.00
2023-02-05T14:33:38.843Z,100.00
2023-02-05T14:36:41.811Z,100.00
2023-02-05T14:39:26.234Z,100.00
2023-02-05T14:41:58.988Z,100.00
2023-02-05T14:44:29.727Z,100.00
2023-02-05T14:47:05.430Z,100.00
2023-02-05T14:49:42.645Z,100.00
2023-02-05T14:52:25.291Z,100.00
2023-02-05T14:54:59.514Z,100.00
2023-02-05T14:57:32.782Z,100.00
2023-02-05T15:00:03.679Z,100.00
2023-02-05T15:03:02.661Z,100.00
2023-02-05T15:05:38.962Z,100.00
2023-02-05T15:08:13.692Z,100.00
2023-02-05T15:10:50.070Z,100.00
2023-02-05T15:13:19.655Z,100.00
2023-02-05T15:16:17.849Z,100.00
2023-02-05T15:18:48.258Z,100.00
2023-02-05T15:21:25.532Z,100.00
2023-02-05T15:24:00.328Z,100.00
2023-02-05T15:26:37.792Z,100.00
2023-02-05T15:29:10.666Z,100.00
2023-02-05T15:31:45.591Z,100.00
2023-02-05T15:34:34.013Z,100.00
2023-02-05T15:37:16.352Z,100.00
2023-02-05T15:39:49.994Z,100.00
2023-02-05T15:42:22.232Z,100.00
2023-02-05T15:44:50.539Z,100.00
2023-02-05T15:47:24.448Z,100.00
2023-02-05T15:49:54.949Z,100.00
2023-02-05T15:52:26.665Z,100.00
2023-02-05T15:54:57.179Z,100.00
2023-02-05T15:57:29.252Z,100.00
2023-02-05T15:59:59.837Z,100.00
2023-02-05T16:02:29.524Z,100.00
2023-02-05T16:04:59.980Z,100.00
2023-02-05T16:07:32.425Z,100.00
2023-02-05T16:10:04.412Z,100.00
2023-02-05T16:12:32.608Z,100.00
2023-02-05T16:15:02.427Z,100.00
2023-02-05T16:17:37.151Z,100.00
2023-02-05T16:20:22.264Z,100.00
2023-02-05T16:22:55.592Z,100.00
2023-02-05T16:25:38.528Z,100.00
2023-02-05T16:28:14.448Z,100.00
2023-02-05T16:30:44.584Z,100.00
2023-02-05T16:33:26.453Z,100.00
2023-02-05T16:35:57.536Z,100.00
2023-02-05T16:38:28.330Z,100.00
2023-02-05T16:40:59.875Z,100.00
2023-02-05T16:43:32.613Z,100.00
2023-02-05T16:46:29.702Z,100.00
2023-02-05T16:49:00.059Z,100.00
2023-02-05T16:51:35.370Z,100.00
2023-02-05T16:54:28.655Z,100.00
2023-02-05T16:57:00.999Z,100.00
2023-02-05T16:59:33.750Z,100.00
2023-02-05T17:02:03.440Z,100.00
2023-02-05T17:04:34.746Z,100.00
2023-02-05T17:07:04.752Z,100.00
2023-02-05T17:09:37.514Z,100.00
2023-02-05T17:12:39.152Z,100.00
2023-02-05T17:15:42.449Z,100.00
2023-02-05T17:18:37.541Z,100.00
2023-02-05T17:21:23.006Z,100.00
2023-02-05T17:23:51.827Z,100.00
2023-02-05T17:26:22.119Z,100.00
2023-02-05T17:28:53.870Z,100.00
2023-02-05T17:31:26.158Z,100.00
2023-02-05T17:33:55.880Z,100.00
2023-02-05T17:36:24.042Z,100.00
2023-02-05T17:38:52.967Z,100.00
2023-02-05T17:41:43.160Z,100.00
2023-02-05T17:44:13.374Z,100.00
2023-02-05T17:46:41.766Z,100.00
2023-02-05T17:49:10.064Z,100.00
2023-02-05T17:51:42.696Z,100.00
2023-02-05T17:54:15.725Z,100.00
2023-02-05T17:56:45.818Z,100.00
2023-02-05T17:59:16.085Z,100.00
2023-02-05T18:01:44.229Z,100.00
2023-02-05T18:04:13.623Z,100.00
2023-02-05T18:06:44.098Z,100.00
2023-02-05T18:09:13.595Z,100.00
2023-02-05T18:11:42.931Z,100.00
2023-02-05T18:14:12.696Z,100.00
2023-02-05T18:16:41.478Z,100.00
2023-02-05T18:19:09.914Z,100.00
2023-02-05T18:21:38.976Z,100.00
2023-02-05T18:24:30.147Z,100.00
2023-02-05T18:26:58.285Z,100.00
2023-02-05T18:32:24.233Z,100.00
2023-02-05T18:34:53.425Z,100.00
2023-02-05T18:40:17.376Z,100.00
2023-02-05T18:42:47.162Z,100.00
2023-02-05T18:45:21.578Z,100.00
2023-02-05T18:47:49.624Z,100.00
2023-02-05T18:50:18.495Z,100.00
2023-02-05T18:52:48.391Z,100.00
2023-02-05T18:55:18.028Z,100.00
2023-02-05T18:57:46.657Z,100.00
2023-02-05T19:00:17.608Z,100.00
2023-02-05T19:02:45.815Z,100.00
2023-02-05T19:05:13.847Z,100.00
2023-02-05T19:07:43.071Z,100.00
2023-02-05T19:10:11.591Z,100.00
2023-02-05T19:12:39.744Z,100.00
2023-02-05T19:15:09.477Z,100.00
2023-02-05T19:17:39.591Z,100.00
2023-02-05T19:20:09.104Z,100.00
2023-02-05T19:22:38.479Z,100.00
2023-02-05T19:25:07.188Z,100.00
2023-02-05T19:27:35.417Z,100.00
2023-02-05T19:30:03.641Z,100.00
2023-02-05T19:32:31.866Z,100.00
2023-02-05T19:35:03.338Z,100.00
2023-02-05T19:37:31.887Z,100.00
2023-02-05T19:40:00.504Z,100.00
2023-02-05T19:42:30.424Z,100.00
2023-02-05T19:44:58.819Z,100.00
2023-02-05T19:47:28.942Z,100.00
2023-02-05T19:49:57.447Z,100.00
2023-02-05T19:52:27.786Z,100.00
2023-02-05T19:54:56.822Z,100.00
2023-02-05T19:57:25.138Z,100.00
2023-02-05T19:59:53.245Z,100.00
2023-02-05T20:02:21.867Z,100.00
2023-02-05T20:04:50.315Z,100.00
2023-02-05T20:07:18.420Z,100.00
2023-02-05T20:09:50.275Z,100.00
2023-02-05T20:12:19.849Z,100.00
2023-02-05T20:14:47.988Z,100.00
2023-02-05T20:17:17.765Z,100.00
2023-02-05T20:19:45.740Z,100.00
2023-02-05T20:22:13.726Z,100.00
2023-02-05T20:24:41.738Z,100.00
2023-02-05T20:27:13.545Z,100.00
2023-02-05T20:29:59.208Z,100.00
2023-02-05T20:32:27.203Z,100.00
2023-02-05T20:34:55.999Z,100.00
2023-02-05T20:37:24.142Z,100.00
2023-02-05T20:39:53.613Z,100.00
2023-02-05T20:42:23.098Z,100.00
2023-02-05T20:44:51.311Z,100.00
2023-02-05T20:47:21.748Z,100.00
2023-02-05T20:49:50.117Z,100.00
2023-02-05T20:52:18.247Z,100.00
2023-02-05T20:54:48.975Z,100.00
2023-02-05T20:57:19.152Z,100.00
2023-02-05T20:59:50.067Z,100.00
2023-02-05T21:02:19.526Z,100.00
2023-02-05T21:04:50.314Z,100.00
2023-02-05T21:07:22.554Z,100.00
2023-02-05T21:09:50.762Z,100.00
2023-02-05T21:12:19.167Z,100.00
2023-02-05T21:14:48.198Z,100.00
2023-02-05T21:17:18.019Z,100.00
2023-02-05T21:19:46.016Z,100.00
2023-02-05T21:22:14.462Z,100.00
2023-02-05T21:24:42.460Z,100.00
2023-02-05T21:27:10.436Z,100.00
2023-02-05T21:29:38.465Z,100.00
2023-02-05T21:32:08.135Z,100.00
2023-02-05T21:34:37.682Z,100.00
2023-02-05T21:37:05.690Z,100.00
2023-02-05T21:39:33.944Z,100.00
2023-02-05T21:42:02.498Z,100.00
2023-02-05T21:44:30.861Z,100.00
2023-02-05T21:46:58.985Z,100.00
2023-02-05T21:49:26.909Z,100.00
2023-02-05T21:51:56.378Z,100.00
2023-02-05T21:54:25.663Z,100.00
2023-02-05T21:56:54.475Z,100.00
2023-02-05T21:59:23.207Z,100.00
2023-02-05T22:01:52.779Z,100.00
2023-02-05T22:04:20.782Z,100.00
2023-02-05T22:06:48.936Z,100.00
2023-02-05T22:09:18.427Z,100.00
2023-02-05T22:11:46.577Z,100.00
2023-02-05T22:14:14.595Z,100.00
2023-02-05T22:16:42.803Z,100.00
2023-02-05T22:19:11.073Z,100.00
2023-02-05T22:21:41.318Z,100.00
2023-02-05T22:24:14.052Z,100.00
2023-02-05T22:26:44.816Z,100.00
2023-02-05T22:29:14.388Z,100.00
2023-02-05T22:31:44.486Z,100.00
2023-02-05T22:34:14.322Z,100.00
2023-02-05T22:36:42.343Z,100.00
2023-02-05T22:39:10.842Z,100.00
2023-02-05T22:41:41.322Z,100.00
2023-02-05T22:44:12.310Z,100.00
2023-02-05T22:46:43.019Z,100.00
2023-02-05T22:49:15.132Z,100.00
2023-02-05T22:51:44.658Z,100.00
2023-02-05T22:54:14.836Z,100.00
2023-02-05T22:56:43.162Z,100.00
2023-02-05T22:59:13.244Z,100.00
2023-02-05T23:01:41.568Z,100.00
2023-02-05T23:04:10.682Z,100.00
2023-02-05T23:06:40.220Z,100.00
2023-02-05T23:09:10.945Z,100.00
2023-02-05T23:11:39.123Z,100.00
2023-02-05T23:14:07.779Z,100.00
2023-02-05T23:16:39.478Z,100.00
2023-02-05T23:19:09.820Z,100.00
2023-02-05T23:21:38.789Z,100.00
2023-02-05T23:24:07.821Z,100.00
2023-02-05T23:26:42.431Z,100.00
2023-02-05T23:29:12.836Z,100.00
2023-02-05T23:31:42.535Z,100.00
2023-02-05T23:34:10.662Z,100.00
2023-02-05T23:36:38.754Z,100.00
2023-02-05T23:39:06.864Z,100.00
2023-02-05T23:41:37.648Z,100.00
2023-02-05T23:44:08.384Z,100.00
2023-02-05T23:46:37.512Z,100.00
2023-02-05T23:49:07.590Z,100.00
2023-02-05T23:51:35.662Z,100.00
2023-02-05T23:54:04.094Z,100.00
2023-02-05T23:56:32.197Z,100.00
2023-02-05T23:59:00.575Z,100.00
